Dorobisoro Airport


Codes: DOO/DOO
Name: Dorobisoro Airport
City: Dorobisoro
Country: Papua New Guinea
Elevation: 1767 ft.

Photos at Dorobisoro Airport


   Photos courtesy of SpottingLog. You can add your own sightings and photos by signing up for a free trial today.



No photos found.

Weather at Dorobisoro Airport


Time (UTC)DescriptionTempratureWindCloud coverageVisibilityPressureHumidity
19-Apr-2024 03:00Light Rain28°C2 mph, S71%6417m1009hPa65%
19-Apr-2024 06:00Moderate Rain27°C2 mph, S75%4505m1009hPa72%
19-Apr-2024 09:00Light Rain24°C0 mph, E84%3922m1011hPa87%
19-Apr-2024 12:00Light Rain20°C2 mph, NE95%10000m1014hPa96%
19-Apr-2024 15:00Light Rain19°C4 mph, NE98%10000m1013hPa93%
19-Apr-2024 18:00Overcast Clouds18°C7 mph, NE99%10000m1012hPa89%
19-Apr-2024 21:00Overcast Clouds18°C7 mph, NE100%10000m1014hPa83%
20-Apr-2024 00:00Overcast Clouds28°C2 mph, SW100%10000m1013hPa49%
20-Apr-2024 03:00Light Rain28°C7 mph, SW98%10000m1010hPa61%
20-Apr-2024 06:00Moderate Rain23°C2 mph, S99%9330m1011hPa92%
20-Apr-2024 09:00Moderate Rain21°C4 mph, NE100%8701m1013hPa96%
20-Apr-2024 12:00Moderate Rain20°C2 mph, NE94%10000m1015hPa95%
20-Apr-2024 15:00Light Rain19°C4 mph, NE82%10000m1013hPa94%
20-Apr-2024 18:00Broken Clouds18°C4 mph, NE79%10000m1013hPa91%
20-Apr-2024 21:00Overcast Clouds18°C7 mph, NE97%10000m1015hPa84%
21-Apr-2024 00:00Overcast Clouds27°C2 mph, S100%10000m1013hPa51%
21-Apr-2024 03:00Overcast Clouds28°C4 mph, S99%10000m1009hPa54%
21-Apr-2024 06:00Light Rain25°C4 mph, S98%10000m1010hPa76%
21-Apr-2024 09:00Light Rain21°C2 mph, NE100%10000m1012hPa97%
21-Apr-2024 12:00Overcast Clouds20°C2 mph, NE100%10000m1014hPa95%
21-Apr-2024 15:00Overcast Clouds19°C7 mph, NE100%10000m1013hPa85%
21-Apr-2024 18:00Overcast Clouds18°C7 mph, NE100%10000m1012hPa79%
21-Apr-2024 21:00Overcast Clouds19°C7 mph, NE100%10000m1014hPa71%
22-Apr-2024 00:00Broken Clouds28°C2 mph, S84%10000m1012hPa43%
22-Apr-2024 03:00Overcast Clouds28°C7 mph, S97%10000m1009hPa56%
22-Apr-2024 06:00Light Rain25°C2 mph, S99%10000m1009hPa70%
22-Apr-2024 09:00Light Rain21°C4 mph, NE100%10000m1012hPa96%
22-Apr-2024 12:00Overcast Clouds20°C4 mph, NE100%10000m1013hPa92%
22-Apr-2024 15:00Overcast Clouds18°C7 mph, NE97%10000m1013hPa78%
22-Apr-2024 18:00Broken Clouds18°C7 mph, NE83%10000m1012hPa70%
22-Apr-2024 21:00Broken Clouds19°C7 mph, NE52%10000m1013hPa68%
23-Apr-2024 00:00Broken Clouds28°C2 mph, S60%10000m1012hPa44%
23-Apr-2024 03:00Broken Clouds28°C4 mph, S64%10000m1009hPa53%
23-Apr-2024 06:00Light Rain24°C2 mph, S83%10000m1010hPa74%
23-Apr-2024 09:00Light Rain21°C4 mph, NE97%10000m1013hPa97%
23-Apr-2024 12:00Light Rain20°C4 mph, NE98%10000m1014hPa94%
23-Apr-2024 15:00Overcast Clouds19°C7 mph, NE100%10000m1013hPa87%
23-Apr-2024 18:00Broken Clouds18°C7 mph, NE71%10000m1013hPa80%
23-Apr-2024 21:00Clear Sky19°C7 mph, NE2%10000m1014hPa74%
24-Apr-2024 00:00Few Clouds28°C4 mph, S22%10000m1013hPa47%